Time;durP1;ratioP1;P1;durP2;ratioP2;P2;SDS_P1;SDS_P2;PMS_P1;PMS_P2;Temp;Humidity;BMP_temperature;BMP_pressure;BME280_temperature;BME280_humidity;BME280_pressure;Samples;Min_cycle;Max_cycle;Signal;HPM_P1;HPM_P2
2021/04/03 00:00:54;;;;;;;11.10;7.08;;;;;;;6.52;91.84;100239.31;1763851;81;21141;-55
2021/04/03 00:03:24;;;;;;;11.97;7.15;;;;;;;6.43;92.04;100248.41;1763853;81;21129;-57
2021/04/03 00:05:52;;;;;;;12.37;6.90;;;;;;;6.39;92.08;100243.19;1762730;81;21556;-56
2021/04/03 00:08:24;;;;;;;12.63;7.08;;;;;;;6.35;92.03;100252.18;1774483;80;21071;-56
2021/04/03 00:11:00;;;;;;;10.65;7.10;;;;;;;6.34;92.08;100255.76;1760390;81;21369;-56
2021/04/03 00:13:36;;;;;;;11.45;6.42;;;;;;;6.32;91.91;100253.13;1774468;80;21138;-57
2021/04/03 00:16:07;;;;;;;11.12;6.47;;;;;;;6.33;92.05;100254.01;1760345;81;21077;-56
2021/04/03 00:18:34;;;;;;;9.30;6.30;;;;;;;6.34;91.81;100255.76;1774533;80;21130;-57
2021/04/03 00:21:04;;;;;;;10.55;6.30;;;;;;;6.34;91.87;100251.77;1760417;81;21222;-56
2021/04/03 00:23:34;;;;;;;10.08;6.03;;;;;;;6.34;91.57;100259.28;1774467;80;21202;-56
2021/04/03 00:26:03;;;;;;;9.95;6.30;;;;;;;6.32;91.45;100263.77;1760196;81;21101;-56
2021/04/03 00:28:32;;;;;;;10.75;6.17;;;;;;;6.33;91.61;100262.00;1774535;80;21162;-56
2021/04/03 00:31:00;;;;;;;10.60;5.95;;;;;;;6.34;91.51;100257.09;1760386;81;21050;-56
2021/04/03 00:33:27;;;;;;;10.85;5.72;;;;;;;6.34;91.51;100267.73;1774486;80;21064;-56
2021/04/03 00:35:56;;;;;;;11.22;5.72;;;;;;;6.35;91.23;100247.71;1760511;81;22078;-56
2021/04/03 00:38:23;;;;;;;7.20;5.28;;;;;;;6.33;90.81;100260.19;1774510;80;21151;-56
2021/04/03 00:40:51;;;;;;;8.53;5.22;;;;;;;6.34;90.65;100271.73;1760325;81;21223;-56
2021/04/03 00:43:26;;;;;;;8.23;5.45;;;;;;;6.34;90.50;100273.06;1774245;80;21202;-55
2021/04/03 00:45:51;;;;;;;8.58;5.40;;;;;;;6.35;90.49;100269.02;1761759;81;21180;-56
2021/04/03 00:48:19;;;;;;;11.00;5.45;;;;;;;6.38;90.43;100270.73;1793604;80;21374;-56
2021/04/03 00:50:49;;;;;;;10.43;5.37;;;;;;;6.39;89.81;100268.48;1762427;81;21176;-57
2021/04/03 00:53:23;;;;;;;8.83;5.45;;;;;;;6.38;89.42;100256.95;1773702;80;21115;-56
2021/04/03 00:55:54;;;;;;;7.15;5.00;;;;;;;6.35;89.01;100259.69;1761757;81;21556;-56
2021/04/03 00:58:23;;;;;;;9.78;4.75;;;;;;;6.32;88.94;100240.28;1764604;80;21138;-56
2021/04/03 01:00:51;;;;;;;6.45;4.47;;;;;;;6.29;88.89;100246.07;1762274;81;22873;-56
2021/04/03 01:03:23;;;;;;;8.40;4.85;;;;;;;6.28;88.98;100254.97;1773476;80;21174;-56
2021/04/03 01:05:51;;;;;;;9.03;5.12;;;;;;;6.26;89.02;100248.81;1713259;81;21259;-56
2021/04/03 01:08:19;;;;;;;7.17;4.83;;;;;;;6.25;89.01;100259.05;1786733;80;21141;-55
2021/04/03 01:10:50;;;;;;;6.58;4.40;;;;;;;6.25;88.91;100251.53;1786617;79;21105;-56
2021/04/03 01:13:51;;;;;;;8.00;4.10;;;;;;;6.23;88.87;100251.56;1786525;80;21074;-56
2021/04/03 01:16:38;;;;;;;6.47;4.37;;;;;;;6.18;88.56;100262.79;1786614;80;21250;-56
2021/04/03 01:19:19;;;;;;;10.53;4.53;;;;;;;6.17;89.03;100258.38;1786655;80;21069;-56
2021/04/03 01:22:11;;;;;;;7.90;4.62;;;;;;;6.13;89.12;100256.23;1786679;80;21057;-56
2021/04/03 01:24:58;;;;;;;6.90;4.70;;;;;;;6.12;89.10;100261.61;1784377;79;21236;-55
2021/04/03 01:27:25;;;;;;;6.37;4.50;;;;;;;6.08;89.08;100245.27;1781138;80;22237;-56
2021/04/03 01:30:05;;;;;;;6.53;4.10;;;;;;;6.04;89.13;100236.52;1780736;80;21747;-56
2021/04/03 01:33:05;;;;;;;10.00;4.50;;;;;;;6.00;89.32;100242.32;1779559;80;21121;-56
2021/04/03 01:35:42;;;;;;;8.48;4.75;;;;;;;5.97;89.56;100249.52;1780794;80;21109;-56
2021/04/03 01:38:21;;;;;;;7.53;4.53;;;;;;;5.93;89.77;100242.50;1780138;80;21128;-56
2021/04/03 01:40:48;;;;;;;10.15;5.00;;;;;;;5.90;89.94;100255.88;1780810;80;21195;-56
2021/04/03 01:43:20;;;;;;;7.92;4.80;;;;;;;5.85;90.20;100251.55;1780809;80;21113;-56
2021/04/03 01:45:49;;;;;;;7.05;5.37;;;;;;;5.80;90.09;100260.10;1747890;80;21566;-56
2021/04/03 01:48:18;;;;;;;9.03;5.60;;;;;;;5.75;90.08;100244.71;1756602;81;21507;-56
2021/04/03 01:50:46;;;;;;;8.75;5.80;;;;;;;5.70;90.36;100242.14;1770721;81;21483;-56
2021/04/03 01:53:18;;;;;;;9.53;5.67;;;;;;;5.66;90.54;100253.77;1756465;81;21449;-56
2021/04/03 01:55:46;;;;;;;11.40;7.40;;;;;;;5.62;90.82;100265.36;1770516;81;21108;-57
2021/04/03 01:58:14;;;;;;;11.63;6.65;;;;;;;5.58;91.01;100267.67;1756525;81;21114;-57
2021/04/03 02:00:42;;;;;;;10.28;7.62;;;;;;;5.56;91.02;100269.50;1770575;81;21115;-57
2021/04/03 02:03:10;;;;;;;12.43;8.15;;;;;;;5.54;91.21;100273.53;1756510;81;21061;-58
2021/04/03 02:05:38;;;;;;;12.07;8.73;;;;;;;5.53;91.26;100276.22;1768629;81;21320;-56
2021/04/03 02:08:08;;;;;;;18.23;9.23;;;;;;;5.52;91.41;100274.47;1774059;80;21063;-56
2021/04/03 02:10:37;;;;;;;12.95;8.08;;;;;;;5.50;91.37;100281.60;1783798;80;21207;-56
2021/04/03 02:13:05;;;;;;;13.68;7.80;;;;;;;5.45;91.54;100286.58;1783817;80;21140;-57
2021/04/03 02:15:35;;;;;;;14.50;8.00;;;;;;;5.43;91.61;100293.70;1781973;80;21135;-57
2021/04/03 02:18:04;;;;;;;10.80;7.22;;;;;;;5.39;91.79;100284.02;1783884;80;22247;-57
2021/04/03 02:20:35;;;;;;;10.40;5.08;;;;;;;5.38;91.90;100292.91;1783120;80;21171;-56
2021/04/03 02:23:03;;;;;;;8.38;4.97;;;;;;;5.35;92.14;100295.63;1783867;80;21565;-56
2021/04/03 02:25:31;;;;;;;10.95;4.97;;;;;;;5.30;92.31;100290.88;1783625;80;21199;-56
2021/04/03 02:27:59;;;;;;;8.30;5.25;;;;;;;5.25;92.28;100292.75;1783814;80;21054;-56
2021/04/03 02:30:28;;;;;;;9.85;5.00;;;;;;;5.20;92.39;100297.30;1783631;80;21569;-56
2021/04/03 02:32:57;;;;;;;9.30;5.47;;;;;;;5.16;92.48;100290.69;1783781;80;20954;-56
2021/04/03 02:35:27;;;;;;;11.05;5.67;;;;;;;5.10;92.54;100286.83;1783802;80;21219;-56
2021/04/03 02:38:00;;;;;;;9.15;5.78;;;;;;;4.99;92.55;100292.36;1783886;80;21154;-56
2021/04/03 02:40:30;;;;;;;8.85;4.80;;;;;;;4.99;92.55;100292.36;1783900;80;21484;-56
2021/04/03 02:43:35;;;;;;;9.40;5.10;;;;;;;4.94;92.61;100285.37;1783855;80;22254;-56
2021/04/03 02:46:08;;;;;;;7.05;5.20;;;;;;;4.93;92.83;100296.91;1782375;79;21122;-57
2021/04/03 02:48:37;;;;;;;9.48;5.22;;;;;;;4.88;92.91;100300.53;1731542;81;21066;-56
2021/04/03 02:51:06;;;;;;;11.05;5.75;;;;;;;4.84;92.84;100305.48;1776446;80;21469;-56
2021/04/03 02:53:35;;;;;;;11.25;5.80;;;;;;;4.74;92.78;100289.27;1759533;81;21502;-56
2021/04/03 02:56:05;;;;;;;11.78;5.55;;;;;;;4.73;92.75;100303.45;1774849;80;21373;-56
2021/04/03 02:58:36;;;;;;;9.23;4.97;;;;;;;4.67;92.80;100302.24;1732536;81;21133;-56
2021/04/03 03:01:10;;;;;;;8.30;4.83;;;;;;;4.62;92.85;100313.41;1776398;80;21543;-57
2021/04/03 03:03:40;;;;;;;12.63;6.05;;;;;;;4.51;92.94;100309.14;1759373;81;21070;-57
2021/04/03 03:06:09;;;;;;;11.43;6.03;;;;;;;4.51;92.94;100309.14;1774996;80;21082;-56
2021/04/03 03:08:37;;;;;;;12.18;5.67;;;;;;;4.46;93.10;100314.98;1756548;81;21206;-56
2021/04/03 03:11:05;;;;;;;15.53;6.80;;;;;;;4.39;93.16;100316.00;1770558;81;21127;-56
2021/04/03 03:13:34;;;;;;;10.53;6.90;;;;;;;4.34;93.30;100315.20;1756468;81;21106;-56
2021/04/03 03:16:04;;;;;;;13.65;7.62;;;;;;;4.27;93.46;100325.03;1776750;80;21476;-56
2021/04/03 03:18:31;;;;;;;12.03;6.50;;;;;;;4.15;93.53;100335.39;1727441;81;21157;-56
2021/04/03 03:21:00;;;;;;;11.35;6.22;;;;;;;4.15;93.53;100335.39;1776564;80;21685;-56
2021/04/03 03:23:28;;;;;;;10.53;5.08;;;;;;;4.03;93.79;100330.25;1776579;80;20992;-56
2021/04/03 03:25:57;;;;;;;14.38;5.42;;;;;;;4.03;93.79;100330.25;1776593;80;21516;-56
2021/04/03 03:28:26;;;;;;;12.68;6.47;;;;;;;4.00;94.14;100325.89;1756421;81;21066;-56
2021/04/03 03:30:54;;;;;;;9.98;5.97;;;;;;;3.96;94.19;100321.06;1776873;80;21543;-56
2021/04/03 03:33:24;;;;;;;11.08;5.00;;;;;;;3.89;94.08;100328.70;1756612;81;22765;-56
2021/04/03 03:35:58;;;;;;;12.75;5.35;;;;;;;3.89;94.08;100328.70;1770601;81;21131;-56
2021/04/03 03:38:26;;;;;;;11.12;5.03;;;;;;;3.85;93.96;100334.48;1756732;81;21204;-56
2021/04/03 03:40:54;;;;;;;11.65;4.67;;;;;;;3.78;94.03;100329.28;1743132;81;21178;-56
2021/04/03 03:43:24;;;;;;;11.12;4.40;;;;;;;3.78;94.03;100329.28;1727830;81;21169;-57
2021/04/03 03:45:52;;;;;;;11.63;5.12;;;;;;;3.79;93.98;100333.69;1730163;81;21372;-57
2021/04/03 03:48:20;;;;;;;14.78;5.45;;;;;;;3.80;94.05;100338.98;1751718;81;21129;-57
2021/04/03 03:50:48;;;;;;;11.05;5.03;;;;;;;3.81;94.04;100338.52;1756889;81;21083;-56
2021/04/03 03:53:17;;;;;;;11.73;6.28;;;;;;;3.83;94.14;100343.34;1765427;81;21086;-57
2021/04/03 03:55:47;;;;;;;11.97;5.75;;;;;;;3.87;94.08;100342.44;1765565;81;21070;-56
2021/04/03 03:58:17;;;;;;;11.38;5.92;;;;;;;3.91;93.73;100340.59;1765345;81;21369;-56
2021/04/03 04:00:46;;;;;;;11.30;5.08;;;;;;;3.93;93.37;100339.69;1765241;81;21073;-56
2021/04/03 04:03:16;;;;;;;8.73;4.83;;;;;;;3.93;92.63;100330.40;1746225;81;21082;-56
2021/04/03 04:05:46;;;;;;;8.38;4.42;;;;;;;3.95;92.37;100331.69;1768890;80;21158;-57
2021/04/03 04:08:18;;;;;;;8.25;4.40;;;;;;;3.98;92.09;100324.58;1754779;81;21126;-56
2021/04/03 04:10:46;;;;;;;21.68;6.65;;;;;;;4.00;91.49;100320.12;1771242;81;21155;-57
2021/04/03 04:13:15;;;;;;;17.92;6.67;;;;;;;4.01;90.99;100317.89;1754702;81;21109;-56
2021/04/03 04:15:43;;;;;;;14.13;5.15;;;;;;;4.03;90.77;100325.84;1771204;81;21142;-56
2021/04/03 04:18:11;;;;;;;11.18;5.33;;;;;;;4.09;90.53;100338.11;1754798;81;21157;-57
2021/04/03 04:20:39;;;;;;;7.62;4.53;;;;;;;4.13;90.21;100347.34;1771287;80;21043;-57
2021/04/03 04:23:08;;;;;;;6.65;4.22;;;;;;;4.17;89.94;100352.16;1754173;81;21432;-57
2021/04/03 04:25:38;;;;;;;7.42;4.03;;;;;;;4.24;89.96;100355.61;1770825;81;21201;-56
2021/04/03 04:28:06;;;;;;;10.98;3.83;;;;;;;4.33;89.37;100357.25;1754772;81;21050;-57
2021/04/03 04:30:34;;;;;;;13.83;4.20;;;;;;;4.40;88.71;100350.93;1771275;81;21107;-57
2021/04/03 04:33:05;;;;;;;11.30;4.97;;;;;;;4.46;88.36;100350.82;1754282;81;21184;-57
2021/04/03 04:35:32;;;;;;;10.32;5.87;;;;;;;4.52;88.12;100340.09;1771208;81;21575;-57
2021/04/03 04:38:02;;;;;;;16.85;8.03;;;;;;;4.57;87.43;100336.94;1754668;81;21133;-57
2021/04/03 04:40:32;;;;;;;21.20;10.63;;;;;;;4.63;87.27;100346.55;1770942;81;21158;-56
2021/04/03 04:43:00;;;;;;;14.73;8.75;;;;;;;4.77;86.62;100350.33;1754763;81;21038;-56
2021/04/03 04:45:30;;;;;;;8.58;4.72;;;;;;;4.77;86.62;100350.33;1756712;81;21090;-56
2021/04/03 04:47:58;;;;;;;14.50;4.28;;;;;;;4.83;86.04;100351.54;1780880;80;21356;-56
2021/04/03 04:50:26;;;;;;;9.23;4.35;;;;;;;4.92;85.87;100369.10;1780813;80;21038;-56
2021/04/03 04:52:54;;;;;;;7.00;3.98;;;;;;;5.02;85.57;100360.52;1780821;80;20986;-57
2021/04/03 04:55:24;;;;;;;7.10;4.62;;;;;;;5.27;84.93;100362.70;1780779;80;21102;-56
2021/04/03 04:57:51;;;;;;;9.33;4.40;;;;;;;5.27;84.93;100362.70;1780899;80;21175;-57
2021/04/03 05:00:22;;;;;;;8.30;4.17;;;;;;;5.39;84.08;100361.12;1780388;80;21443;-58
2021/04/03 05:02:51;;;;;;;12.23;5.00;;;;;;;5.49;83.26;100357.83;1778374;80;21188;-57
2021/04/03 05:05:19;;;;;;;11.10;5.17;;;;;;;5.56;82.95;100347.51;1775772;80;21117;-57
2021/04/03 05:07:48;;;;;;;8.05;4.80;;;;;;;5.67;82.55;100351.27;1734294;82;21082;-57
2021/04/03 05:10:17;;;;;;;14.63;7.30;;;;;;;5.93;81.04;100367.56;1734282;82;21086;-56
2021/04/03 05:12:45;;;;;;;10.43;5.28;;;;;;;5.93;81.04;100367.56;1734340;82;21696;-57
2021/04/03 05:15:13;;;;;;;11.55;6.05;;;;;;;6.05;80.74;100373.09;1734177;82;21121;-58
2021/04/03 05:17:40;;;;;;;8.38;3.98;;;;;;;6.17;80.21;100390.14;1734311;82;21085;-57
2021/04/03 05:20:10;;;;;;;13.00;4.30;;;;;;;6.26;79.58;100384.59;1734249;82;21155;-57
2021/04/03 05:22:37;;;;;;;9.68;3.98;;;;;;;6.37;79.44;100388.81;1734345;82;21478;-57
2021/04/03 05:25:06;;;;;;;6.92;4.30;;;;;;;6.52;78.81;100407.55;1734270;82;21145;-57
2021/04/03 05:27:34;;;;;;;7.17;4.75;;;;;;;6.58;77.99;100392.30;1734607;80;21616;-57
2021/04/03 05:30:02;;;;;;;9.08;4.42;;;;;;;6.68;77.81;100392.06;1734818;82;21173;-58
2021/04/03 05:32:30;;;;;;;15.08;6.65;;;;;;;6.80;77.22;100385.11;1734813;82;21074;-56
2021/04/03 05:34:57;;;;;;;11.78;6.33;;;;;;;6.85;76.65;100384.52;1734855;82;21050;-57
2021/04/03 05:37:25;;;;;;;12.10;6.33;;;;;;;6.97;76.60;100390.00;1734790;82;21748;-57
2021/04/03 05:39:53;;;;;;;18.30;9.75;;;;;;;7.12;76.30;100402.05;1734896;82;22354;-56
2021/04/03 05:42:21;;;;;;;18.73;9.65;;;;;;;7.26;75.45;100404.34;1734855;82;21228;-56
2021/04/03 05:44:49;;;;;;;24.32;8.53;;;;;;;7.37;75.03;100410.72;1747177;81;21507;-57
2021/04/03 05:47:17;;;;;;;18.30;8.10;;;;;;;7.51;74.78;100421.48;1766776;81;21173;-57
2021/04/03 05:49:45;;;;;;;20.35;6.17;;;;;;;7.66;74.36;100420.17;1766777;81;21516;-57
2021/04/03 05:52:13;;;;;;;15.15;7.70;;;;;;;7.82;73.33;100436.17;1766707;81;21121;-57
2021/04/03 05:54:41;;;;;;;16.17;8.18;;;;;;;7.95;72.24;100438.03;1766769;81;21137;-57
2021/04/03 05:57:09;;;;;;;12.23;7.92;;;;;;;8.06;71.79;100448.39;1766783;81;21077;-57
2021/04/03 05:59:37;;;;;;;19.32;6.35;;;;;;;8.13;71.23;100446.42;1766770;81;21093;-57
2021/04/03 06:02:05;;;;;;;11.50;6.17;;;;;;;8.19;70.77;100440.89;1715267;81;21561;-57
2021/04/03 06:04:33;;;;;;;13.48;7.30;;;;;;;8.26;71.16;100447.78;1766724;81;21026;-57
2021/04/03 06:07:04;;;;;;;20.92;10.20;;;;;;;8.40;70.33;100446.50;1765338;81;21002;-56
2021/04/03 06:09:32;;;;;;;18.10;6.85;;;;;;;8.65;69.78;100452.44;1765114;81;21177;-57
2021/04/03 06:12:00;;;;;;;12.53;6.28;;;;;;;9.07;69.36;100458.66;1765149;81;21050;-58
2021/04/03 06:14:27;;;;;;;15.53;8.03;;;;;;;9.75;67.29;100454.95;1765188;81;21416;-57
2021/04/03 06:16:57;;;;;;;10.15;6.53;;;;;;;10.32;64.52;100460.00;1691235;81;21066;-56
2021/04/03 06:19:25;;;;;;;13.53;6.53;;;;;;;10.88;62.73;100461.84;1765135;81;21121;-56
2021/04/03 06:21:57;;;;;;;10.95;5.25;;;;;;;11.42;60.81;100453.36;1765249;81;21425;-56
2021/04/03 06:24:33;;;;;;;13.83;8.68;;;;;;;11.85;58.01;100463.15;1765190;81;21530;-57
2021/04/03 06:27:11;;;;;;;10.40;6.53;;;;;;;11.79;56.81;100447.28;1773660;80;21504;-56
2021/04/03 06:29:49;;;;;;;10.35;4.33;;;;;;;11.52;57.73;100456.97;1758845;81;21210;-57
2021/04/03 06:32:33;;;;;;;8.05;4.72;;;;;;;11.39;58.16;100453.95;1774442;80;21083;-57
2021/04/03 06:35:01;;;;;;;10.00;4.97;;;;;;;11.32;57.97;100457.36;1760365;81;21175;-56
2021/04/03 06:37:32;;;;;;;9.20;4.53;;;;;;;11.18;57.98;100466.00;1774417;80;21078;-56
2021/04/03 06:40:10;;;;;;;12.85;5.78;;;;;;;10.99;57.14;100474.81;1760317;81;21274;-58
2021/04/03 06:42:55;;;;;;;14.90;8.08;;;;;;;10.83;57.49;100471.89;1774387;80;21119;-56
2021/04/03 06:45:32;;;;;;;10.35;4.20;;;;;;;10.72;58.14;100468.30;1762547;81;21203;-57
2021/04/03 06:48:03;;;;;;;13.60;5.97;;;;;;;10.57;58.35;100468.45;1763843;81;21050;-56
2021/04/03 06:50:36;;;;;;;13.83;6.03;;;;;;;10.48;59.17;100476.84;1763898;81;21247;-58
2021/04/03 06:53:15;;;;;;;12.50;5.33;;;;;;;10.44;59.12;100476.56;1763891;81;21445;-56
2021/04/03 06:55:49;;;;;;;7.55;4.10;;;;;;;10.31;58.81;100476.12;1763718;81;21106;-57
2021/04/03 06:58:16;;;;;;;8.98;3.70;;;;;;;10.14;57.51;100478.12;1763931;81;21490;-56
2021/04/03 07:00:45;;;;;;;9.98;3.58;;;;;;;10.07;58.12;100484.64;1763840;81;21225;-61
2021/04/03 07:03:23;;;;;;;6.17;3.30;;;;;;;10.11;58.36;100483.11;1746775;81;21109;-57
2021/04/03 07:05:51;;;;;;;5.92;2.80;;;;;;;10.15;58.39;100490.58;1762828;80;22096;-57
2021/04/03 07:08:20;;;;;;;15.55;3.12;;;;;;;10.19;58.75;100488.19;1774580;80;21091;-57
2021/04/03 07:10:48;;;;;;;6.40;2.58;;;;;;;10.33;57.74;100510.44;1760493;81;21081;-58
2021/04/03 07:13:17;;;;;;;7.65;2.80;;;;;;;10.39;57.39;100494.59;1774549;80;20964;-58
2021/04/03 07:15:45;;;;;;;4.97;2.70;;;;;;;10.45;56.93;100507.34;1732876;81;21109;-57
2021/04/03 07:18:13;;;;;;;6.05;2.85;;;;;;;10.45;56.40;100502.42;1774614;80;21379;-58
2021/04/03 07:20:41;;;;;;;8.30;3.47;;;;;;;10.43;56.52;100500.27;1760512;81;21639;-57
2021/04/03 07:23:11;;;;;;;9.08;4.10;;;;;;;10.48;57.13;100503.64;1774652;80;22358;-57
2021/04/03 07:25:42;;;;;;;7.58;3.40;;;;;;;10.59;56.73;100506.80;1760325;81;21014;-56
2021/04/03 07:28:10;;;;;;;11.53;4.45;;;;;;;10.67;56.56;100501.14;1771836;80;21055;-56
2021/04/03 07:30:43;;;;;;;10.58;3.70;;;;;;;10.74;55.67;100499.09;1754783;81;21371;-56
2021/04/03 07:33:15;;;;;;;20.65;5.03;;;;;;;10.71;55.87;100497.84;1771299;81;21064;-57
2021/04/03 07:36:01;;;;;;;9.55;3.80;;;;;;;10.71;56.03;100488.47;1753937;81;21168;-57
2021/04/03 07:38:33;;;;;;;7.58;3.30;;;;;;;10.73;55.74;100479.92;1771295;81;21198;-57
2021/04/03 07:41:15;;;;;;;5.28;2.47;;;;;;;10.72;55.03;100482.16;1754782;81;21125;-56
2021/04/03 07:43:48;;;;;;;5.00;2.58;;;;;;;10.71;53.84;100475.05;1771230;81;21123;-56
2021/04/03 07:46:24;;;;;;;5.47;2.30;;;;;;;10.76;53.91;100473.09;1758222;81;21495;-56
2021/04/03 07:48:57;;;;;;;4.40;2.75;;;;;;;10.82;53.57;100482.67;1758276;81;21121;-56
2021/04/03 07:51:34;;;;;;;6.65;2.58;;;;;;;10.78;51.81;100489.98;1758254;81;21113;-56
2021/04/03 07:54:03;;;;;;;7.35;3.33;;;;;;;10.77;51.51;100477.97;1758299;81;21141;-56
2021/04/03 07:56:53;;;;;;;13.98;4.90;;;;;;;10.77;51.56;100477.52;1758268;81;21182;-57
2021/04/03 07:59:47;;;;;;;4.22;2.72;;;;;;;10.77;51.51;100474.83;1758222;81;21023;-56
2021/04/03 08:02:20;;;;;;;10.35;4.03;;;;;;;10.84;50.52;100492.41;1758230;81;21082;-58
2021/04/03 08:04:47;;;;;;;8.60;3.02;;;;;;;10.87;51.21;100495.45;1758269;81;21043;-57
2021/04/03 08:07:18;;;;;;;5.03;2.65;;;;;;;10.95;51.19;100497.34;1756903;81;21179;-57
2021/04/03 08:09:46;;;;;;;4.75;2.40;;;;;;;11.07;49.96;100495.97;1776695;80;21774;-56
2021/04/03 08:12:14;;;;;;;6.67;2.25;;;;;;;11.09;49.05;100491.41;1776622;80;21134;-56
2021/04/03 08:14:44;;;;;;;8.70;2.92;;;;;;;11.07;49.42;100499.98;1756667;81;21167;-57
2021/04/03 08:17:21;;;;;;;3.50;1.70;;;;;;;11.07;49.42;100505.36;1770716;81;21174;-57
2021/04/03 08:19:50;;;;;;;8.98;2.40;;;;;;;11.12;46.48;100515.42;1756668;81;20896;-57
2021/04/03 08:22:19;;;;;;;3.62;1.40;;;;;;;11.15;45.81;100512.61;1776781;80;22719;-57
2021/04/03 08:24:57;;;;;;;5.45;1.67;;;;;;;11.22;46.05;100511.04;1756554;81;21240;-57
2021/04/03 08:27:33;;;;;;;7.58;1.30;;;;;;;11.24;46.54;100520.75;1771633;80;21131;-57
2021/04/03 08:30:20;;;;;;;3.67;1.75;;;;;;;11.29;45.50;100524.59;1762344;81;21153;-57
2021/04/03 08:32:31;;;;;;;2.83;1.42;;;;;;;11.34;45.45;100521.73;1790006;80;21193;-57
2021/04/03 08:34:59;;;;;;;3.47;1.42;;;;;;;11.41;46.21;100523.20;1762270;81;21541;-57
2021/04/03 08:37:27;;;;;;;5.62;2.52;;;;;;;11.51;45.34;100522.34;1764869;80;21087;-58
2021/04/03 08:39:54;;;;;;;2.95;1.17;;;;;;;11.52;45.88;100517.38;1762219;81;21081;-57
2021/04/03 08:42:23;;;;;;;10.23;2.47;;;;;;;11.43;46.19;100524.90;1773719;80;21179;-57
2021/04/03 08:44:51;;;;;;;6.92;2.35;;;;;;;11.37;46.51;100530.50;1761425;81;21169;-58
2021/04/03 08:47:19;;;;;;;5.83;3.15;;;;;;;11.31;46.25;100534.34;1774467;80;21791;-57
2021/04/03 08:49:46;;;;;;;2.65;1.45;;;;;;;11.34;46.33;100529.30;1760287;81;21069;-57
2021/04/03 08:52:14;;;;;;;3.92;1.30;;;;;;;11.38;45.63;100541.64;1774509;80;21139;-57
2021/04/03 08:54:44;;;;;;;3.60;1.05;;;;;;;11.38;45.20;100532.25;1760274;81;21156;-56
2021/04/03 08:57:26;;;;;;;6.22;1.90;;;;;;;11.37;43.76;100538.55;1774580;80;21650;-57
2021/04/03 08:59:58;;;;;;;3.70;1.30;;;;;;;11.31;43.56;100545.53;1760298;81;21365;-57
2021/04/03 09:02:26;;;;;;;5.08;1.87;;;;;;;11.28;43.12;100549.69;1748994;80;21557;-57
2021/04/03 09:04:54;;;;;;;5.95;1.47;;;;;;;11.27;42.95;100541.23;1760296;81;21152;-57
2021/04/03 09:07:35;;;;;;;3.70;1.35;;;;;;;11.28;43.26;100544.32;1780198;80;21152;-57
2021/04/03 09:10:14;;;;;;;2.67;1.60;;;;;;;11.30;42.30;100533.94;1795239;80;21142;-58
2021/04/03 09:12:42;;;;;;;5.62;1.80;;;;;;;11.34;42.56;100523.92;1795404;80;21429;-58
2021/04/03 09:15:11;;;;;;;4.10;1.45;;;;;;;11.39;41.97;100538.50;1795270;80;21483;-57
2021/04/03 09:17:50;;;;;;;6.08;1.17;;;;;;;11.39;41.74;100522.40;1795274;79;20983;-57
2021/04/03 09:20:23;;;;;;;2.08;1.20;;;;;;;11.38;42.03;100525.53;1795256;79;21058;-57
2021/04/03 09:22:54;;;;;;;3.00;1.20;;;;;;;11.43;42.12;100537.44;1795387;80;22295;-57
2021/04/03 09:25:23;;;;;;;3.20;1.52;;;;;;;11.52;41.63;100537.06;1795209;79;21185;-57
2021/04/03 09:28:10;;;;;;;6.78;1.40;;;;;;;11.60;41.81;100528.66;1792756;79;20948;-57
2021/04/03 09:30:42;;;;;;;;;;;;;;;11.73;41.45;100538.43;1792070;79;21126;-56
2021/04/03 09:33:22;;;;;;;4.40;1.30;;;;;;;11.80;40.93;100529.16;1780797;80;20223;-56
2021/04/03 09:35:50;;;;;;;1.90;0.98;;;;;;;11.77;40.83;100523.03;1780932;80;21561;-57
2021/04/03 09:38:33;;;;;;;3.00;1.20;;;;;;;11.74;41.02;100522.23;1780821;80;21358;-57
2021/04/03 09:41:22;;;;;;;12.18;2.12;;;;;;;11.69;41.16;100516.19;1780894;80;21494;-56
2021/04/03 09:43:50;;;;;;;3.58;1.12;;;;;;;11.69;41.49;100509.48;1780842;80;21078;-56
2021/04/03 09:46:17;;;;;;;3.83;1.25;;;;;;;11.75;41.66;100511.89;1777210;79;21639;-57
2021/04/03 09:48:56;;;;;;;2.90;1.10;;;;;;;11.79;41.29;100523.38;1754661;81;21117;-57
2021/04/03 09:51:23;;;;;;;3.20;1.65;;;;;;;11.77;40.91;100519.00;1771242;81;21204;-57
2021/04/03 09:53:53;;;;;;;3.15;1.17;;;;;;;11.71;40.62;100529.08;1754607;81;21152;-57
2021/04/03 09:56:20;;;;;;;2.20;1.20;;;;;;;11.65;40.91;100526.67;1771184;81;21099;-57
2021/04/03 09:58:50;;;;;;;2.45;1.20;;;;;;;11.61;40.73;100518.34;1754300;81;21062;-56
2021/04/03 10:01:18;;;;;;;4.10;1.87;;;;;;;11.63;41.01;100541.98;1771139;81;21047;-57
2021/04/03 10:03:47;;;;;;;6.17;2.70;;;;;;;11.69;44.45;100539.02;1754709;81;21069;-57
2021/04/03 10:06:14;;;;;;;10.55;2.65;;;;;;;11.63;45.87;100540.63;1774481;80;21514;-58
2021/04/03 10:08:42;;;;;;;4.80;2.95;;;;;;;11.54;45.81;100541.01;1786948;80;21175;-57
2021/04/03 10:11:10;;;;;;;4.90;2.52;;;;;;;11.40;46.08;100537.11;1786907;80;21195;-57
2021/04/03 10:13:39;;;;;;;5.28;3.35;;;;;;;11.28;46.81;100544.32;1786843;80;21144;-57
2021/04/03 10:16:06;;;;;;;6.72;3.35;;;;;;;11.14;47.39;100554.28;1786828;80;21521;-56
2021/04/03 10:18:36;;;;;;;6.15;3.90;;;;;;;11.08;48.47;100555.39;1786738;80;21159;-56
2021/04/03 10:21:07;;;;;;;8.53;3.85;;;;;;;11.05;49.51;100552.84;1786826;80;21119;-56
2021/04/03 10:23:34;;;;;;;8.95;3.95;;;;;;;11.08;51.29;100541.98;1786828;80;21148;-57
2021/04/03 10:26:02;;;;;;;6.15;3.70;;;;;;;11.07;51.53;100544.26;1786810;80;21045;-56
2021/04/03 10:28:30;;;;;;;6.28;3.62;;;;;;;11.03;51.66;100543.98;1778804;80;21436;-57
2021/04/03 10:30:58;;;;;;;7.20;3.80;;;;;;;11.07;51.69;100552.30;1771929;81;21071;-57
2021/04/03 10:33:26;;;;;;;5.50;3.60;;;;;;;11.10;51.64;100540.11;1771899;81;21147;-57
2021/04/03 10:35:54;;;;;;;6.35;3.55;;;;;;;11.15;51.93;100542.13;1771963;80;21119;-55
2021/04/03 10:38:21;;;;;;;5.55;3.95;;;;;;;11.20;52.10;100543.77;1760396;81;21066;-57
2021/04/03 10:40:49;;;;;;;9.95;3.77;;;;;;;11.12;51.45;100549.45;1765581;81;21686;-57
2021/04/03 10:43:16;;;;;;;8.25;3.90;;;;;;;10.98;51.79;100542.81;1774308;80;21068;-57
2021/04/03 10:45:44;;;;;;;6.47;3.75;;;;;;;10.95;52.21;100560.86;1783010;80;21146;-56
2021/04/03 10:48:12;;;;;;;7.12;3.72;;;;;;;10.91;51.97;100555.19;1785633;80;21178;-56
2021/04/03 10:50:41;;;;;;;10.48;3.45;;;;;;;10.85;52.98;100548.28;1785659;80;21047;-58
2021/04/03 10:53:09;;;;;;;9.08;3.75;;;;;;;10.81;53.05;100554.22;1762664;81;21290;-57
2021/04/03 10:55:39;;;;;;;6.30;3.83;;;;;;;10.74;53.29;100564.30;1776691;80;21009;-58
2021/04/03 10:58:06;;;;;;;6.58;4.30;;;;;;;10.72;52.80;100567.97;1762647;81;21132;-58
2021/04/03 11:00:35;;;;;;;7.12;3.70;;;;;;;10.71;53.06;100563.54;1776728;80;21146;-56
2021/04/03 11:03:04;;;;;;;5.12;3.67;;;;;;;10.71;53.28;100563.54;1762663;81;21156;-57
2021/04/03 11:05:32;;;;;;;7.45;3.60;;;;;;;10.75;53.79;100571.91;1774165;80;21364;-59
2021/04/03 11:08:00;;;;;;;9.43;3.33;;;;;;;10.76;53.47;100556.22;1760417;81;20927;-57
2021/04/03 11:10:27;;;;;;;9.35;3.22;;;;;;;10.74;52.97;100552.72;1765498;81;21071;-56
2021/04/03 11:12:55;;;;;;;5.33;3.02;;;;;;;10.73;52.15;100555.00;1774270;80;21111;-56
2021/04/03 11:15:24;;;;;;;5.62;2.90;;;;;;;10.73;51.29;100551.83;1774463;80;21139;-56
2021/04/03 11:17:53;;;;;;;4.28;2.98;;;;;;;10.74;51.05;100552.72;1774250;80;21153;-56
2021/04/03 11:20:20;;;;;;;4.28;2.80;;;;;;;10.76;50.03;100548.17;1774176;80;21088;-57
2021/04/03 11:22:48;;;;;;;5.22;2.80;;;;;;;10.78;50.12;100546.30;1774354;80;21089;-59
2021/04/03 11:25:16;;;;;;;3.33;2.45;;;;;;;10.82;50.03;100537.20;1774207;79;21099;-56
2021/04/03 11:27:44;;;;;;;3.17;2.37;;;;;;;10.86;48.82;100544.17;1774920;80;21123;-56
2021/04/03 11:30:13;;;;;;;8.45;2.50;;;;;;;10.82;49.00;100545.24;1783943;80;21703;-57
2021/04/03 11:32:47;;;;;;;5.85;2.80;;;;;;;10.79;49.72;100537.32;1783981;80;21235;-57
2021/04/03 11:35:16;;;;;;;3.52;2.33;;;;;;;10.76;49.46;100541.47;1783887;80;21114;-57
2021/04/03 11:37:44;;;;;;;3.58;2.30;;;;;;;10.71;48.67;100536.73;1783873;80;21128;-57
2021/04/03 11:40:13;;;;;;;4.53;2.17;;;;;;;10.74;48.37;100540.17;1783949;80;21160;-57
2021/04/03 11:42:44;;;;;;;4.05;2.40;;;;;;;10.74;48.40;100537.98;1783877;80;22320;-56